This is the latest recevied weather packets stored in our database for station/object VK2KGV-15. If no packets are shown the sender has not sent any weather packets the latest 10 day(s).
| Time | Temp. | Humidity | Pressure | Rain* | Wind** | Luminosity | Snow |
|---|---|---|---|---|---|---|---|
| 1777904986 | 12.78° C | 64% | 1018 hPa | 0 mm | - | - | - |
| 1777903780 | 12.78° C | 64% | 1018.1 hPa | 0 mm | - | - | - |
| 1777902574 | 13.33° C | 62% | 1017.9 hPa | 0 mm | - | - | - |
| 1777901368 | 13.89° C | 60% | 1018.1 hPa | 0 mm | - | - | - |
| 1777900161 | 14.44° C | 58% | 1017.9 hPa | 0 mm | - | - | - |
| 1777898955 | 14.44° C | 56% | 1017.9 hPa | 0 mm | - | - | - |
| 1777897749 | 15.56° C | 54% | 1017.9 hPa | 0 mm | - | - | - |
| 1777896543 | 15.56° C | 54% | 1018.3 hPa | 0 mm | - | - | - |
| 1777894130 | 14.44° C | 57% | 1018.6 hPa | 0 mm | - | - | - |
| 1777892924 | 14.44° C | 57% | 1018.6 hPa | 0 mm | - | - | - |
| 1777891718 | 13.89° C | 56% | 1018.5 hPa | 0 mm | - | - | - |
| 1777889305 | 13.89° C | 56% | 1018.1 hPa | 0 mm | - | - | - |
| 1777888099 | 14.44° C | 54% | 1017.9 hPa | 0 mm | - | - | - |
| 1777887496 | 14.44° C | 53% | 1017.9 hPa | 0 mm | - | - | - |
| 1777886893 | 15° C | 53% | 1017.8 hPa | 0 mm | - | - | - |
| 1777886290 | 15° C | 52% | 1017.9 hPa | 0 mm | - | - | - |
| 1777885687 | 15.56° C | 51% | 1017.8 hPa | 0 mm | - | - | - |
| 1777884481 | 16.11° C | 49% | 1017.3 hPa | 0 mm | - | - | - |
| 1777883878 | 16.67° C | 48% | 1017.4 hPa | 0 mm | - | - | - |
| 1777882068 | 18.33° C | 45% | 1017.1 hPa | 0 mm | - | - | - |
| 1777881465 | 18.89° C | 43% | 1016.9 hPa | 0 mm | - | - | - |
| 1777880862 | 20° C | 42% | 1016.5 hPa | 0 mm | - | - | - |
| 1777879656 | 21.67° C | 39% | 1016.5 hPa | 0 mm | - | - | - |
| 1777878450 | 23.33° C | 36% | 1016 hPa | 0 mm | - | - | - |
| 1777877243 | 24.44° C | 35% | 1015.6 hPa | 0 mm | - | - | - |
* Rain since midnight (hover to see other rain measurements)
** Current wind speed in m/s (hover to see current wind gust speed)